sensor_id;sensor_type;location;lat;lon;timestamp;P1;durP1;ratioP1;P2;durP2;ratioP2
13868;SDS011;7004;48.206;16.402;2022-10-13T00:00:45;12.73;;;8.50;;
13868;SDS011;7004;48.206;16.402;2022-10-13T00:03:12;11.70;;;8.53;;
13868;SDS011;7004;48.206;16.402;2022-10-13T00:05:44;14.30;;;8.80;;
13868;SDS011;7004;48.206;16.402;2022-10-13T00:08:13;12.67;;;8.87;;
13868;SDS011;7004;48.206;16.402;2022-10-13T00:10:46;13.33;;;8.93;;
13868;SDS011;7004;48.206;16.402;2022-10-13T00:13:14;16.60;;;9.20;;
13868;SDS011;7004;48.206;16.402;2022-10-13T00:15:43;17.60;;;9.03;;
13868;SDS011;7004;48.206;16.402;2022-10-13T00:18:10;11.47;;;8.37;;
13868;SDS011;7004;48.206;16.402;2022-10-13T00:20:44;14.37;;;8.33;;
13868;SDS011;7004;48.206;16.402;2022-10-13T00:23:13;17.53;;;8.87;;
13868;SDS011;7004;48.206;16.402;2022-10-13T00:25:41;15.00;;;8.73;;
13868;SDS011;7004;48.206;16.402;2022-10-13T00:28:13;20.83;;;9.53;;
13868;SDS011;7004;48.206;16.402;2022-10-13T00:30:41;16.67;;;10.37;;
13868;SDS011;7004;48.206;16.402;2022-10-13T00:33:08;13.40;;;9.83;;
13868;SDS011;7004;48.206;16.402;2022-10-13T00:35:42;19.67;;;10.10;;
13868;SDS011;7004;48.206;16.402;2022-10-13T00:38:12;14.77;;;9.63;;
13868;SDS011;7004;48.206;16.402;2022-10-13T00:40:43;15.17;;;10.47;;
13868;SDS011;7004;48.206;16.402;2022-10-13T00:43:19;16.27;;;9.43;;
13868;SDS011;7004;48.206;16.402;2022-10-13T00:46:11;14.90;;;10.13;;
13868;SDS011;7004;48.206;16.402;2022-10-13T00:48:37;14.47;;;9.83;;
13868;SDS011;7004;48.206;16.402;2022-10-13T00:51:04;16.13;;;10.53;;
13868;SDS011;7004;48.206;16.402;2022-10-13T00:53:32;14.73;;;9.33;;
13868;SDS011;7004;48.206;16.402;2022-10-13T00:56:02;14.70;;;10.37;;
13868;SDS011;7004;48.206;16.402;2022-10-13T00:58:31;14.43;;;10.27;;
13868;SDS011;7004;48.206;16.402;2022-10-13T01:01:02;12.90;;;9.50;;
13868;SDS011;7004;48.206;16.402;2022-10-13T01:03:30;16.10;;;10.23;;
13868;SDS011;7004;48.206;16.402;2022-10-13T01:05:57;14.00;;;10.60;;
13868;SDS011;7004;48.206;16.402;2022-10-13T01:08:27;13.20;;;10.07;;
13868;SDS011;7004;48.206;16.402;2022-10-13T01:11:02;14.17;;;10.07;;
13868;SDS011;7004;48.206;16.402;2022-10-13T01:14:55;13.87;;;10.40;;
13868;SDS011;7004;48.206;16.402;2022-10-13T01:26:06;16.23;;;10.90;;
13868;SDS011;7004;48.206;16.402;2022-10-13T01:35:37;14.20;;;10.33;;
13868;SDS011;7004;48.206;16.402;2022-10-13T01:41:28;15.77;;;11.00;;
13868;SDS011;7004;48.206;16.402;2022-10-13T01:44:37;15.20;;;11.23;;
13868;SDS011;7004;48.206;16.402;2022-10-13T01:47:00;21.37;;;10.93;;
13868;SDS011;7004;48.206;16.402;2022-10-13T01:49:33;17.17;;;11.93;;
13868;SDS011;7004;48.206;16.402;2022-10-13T01:52:01;16.47;;;10.83;;
13868;SDS011;7004;48.206;16.402;2022-10-13T01:54:32;16.57;;;11.23;;
13868;SDS011;7004;48.206;16.402;2022-10-13T01:56:58;16.93;;;11.57;;
13868;SDS011;7004;48.206;16.402;2022-10-13T01:59:25;18.10;;;11.17;;
13868;SDS011;7004;48.206;16.402;2022-10-13T02:01:55;14.90;;;11.50;;
13868;SDS011;7004;48.206;16.402;2022-10-13T02:07:38;17.93;;;12.10;;
13868;SDS011;7004;48.206;16.402;2022-10-13T02:10:21;18.83;;;11.23;;
13868;SDS011;7004;48.206;16.402;2022-10-13T02:13:07;16.27;;;11.00;;
13868;SDS011;7004;48.206;16.402;2022-10-13T02:15:42;13.73;;;11.30;;
13868;SDS011;7004;48.206;16.402;2022-10-13T02:18:17;18.03;;;11.50;;
13868;SDS011;7004;48.206;16.402;2022-10-13T02:20:50;16.90;;;12.17;;
13868;SDS011;7004;48.206;16.402;2022-10-13T02:23:18;16.67;;;11.80;;
13868;SDS011;7004;48.206;16.402;2022-10-13T02:25:45;21.00;;;12.27;;
13868;SDS011;7004;48.206;16.402;2022-10-13T02:28:13;17.87;;;11.50;;
13868;SDS011;7004;48.206;16.402;2022-10-13T02:30:40;20.87;;;12.17;;
13868;SDS011;7004;48.206;16.402;2022-10-13T02:33:08;20.60;;;12.17;;
13868;SDS011;7004;48.206;16.402;2022-10-13T02:35:35;17.70;;;11.97;;
13868;SDS011;7004;48.206;16.402;2022-10-13T02:38:01;20.10;;;12.27;;
13868;SDS011;7004;48.206;16.402;2022-10-13T02:40:27;16.40;;;12.07;;
13868;SDS011;7004;48.206;16.402;2022-10-13T02:42:54;17.00;;;11.83;;
13868;SDS011;7004;48.206;16.402;2022-10-13T02:45:20;15.83;;;11.20;;
13868;SDS011;7004;48.206;16.402;2022-10-13T02:47:47;18.70;;;12.37;;
13868;SDS011;7004;48.206;16.402;2022-10-13T02:50:13;15.00;;;11.67;;
13868;SDS011;7004;48.206;16.402;2022-10-13T02:52:39;17.03;;;12.03;;
13868;SDS011;7004;48.206;16.402;2022-10-13T02:55:06;17.07;;;12.30;;
13868;SDS011;7004;48.206;16.402;2022-10-13T02:57:34;17.80;;;12.17;;
13868;SDS011;7004;48.206;16.402;2022-10-13T03:00:00;21.27;;;12.03;;
13868;SDS011;7004;48.206;16.402;2022-10-13T03:02:26;20.23;;;11.93;;
13868;SDS011;7004;48.206;16.402;2022-10-13T03:04:53;20.87;;;12.57;;
13868;SDS011;7004;48.206;16.402;2022-10-13T03:07:20;17.57;;;12.57;;
13868;SDS011;7004;48.206;16.402;2022-10-13T03:09:46;18.50;;;12.20;;
13868;SDS011;7004;48.206;16.402;2022-10-13T03:12:12;18.33;;;12.07;;
13868;SDS011;7004;48.206;16.402;2022-10-13T03:14:38;17.07;;;11.73;;
13868;SDS011;7004;48.206;16.402;2022-10-13T03:17:04;18.83;;;12.90;;
13868;SDS011;7004;48.206;16.402;2022-10-13T03:19:31;17.13;;;12.37;;
13868;SDS011;7004;48.206;16.402;2022-10-13T03:21:57;17.83;;;11.50;;
13868;SDS011;7004;48.206;16.402;2022-10-13T03:24:23;15.00;;;11.83;;
13868;SDS011;7004;48.206;16.402;2022-10-13T03:26:49;16.97;;;12.60;;
13868;SDS011;7004;48.206;16.402;2022-10-13T03:29:15;18.97;;;13.20;;
13868;SDS011;7004;48.206;16.402;2022-10-13T03:31:42;18.30;;;12.57;;
13868;SDS011;7004;48.206;16.402;2022-10-13T03:34:09;20.60;;;12.33;;
13868;SDS011;7004;48.206;16.402;2022-10-13T03:36:37;15.53;;;12.27;;
13868;SDS011;7004;48.206;16.402;2022-10-13T03:39:03;19.20;;;13.30;;
13868;SDS011;7004;48.206;16.402;2022-10-13T03:41:29;19.00;;;13.17;;
13868;SDS011;7004;48.206;16.402;2022-10-13T03:43:55;16.33;;;12.50;;
13868;SDS011;7004;48.206;16.402;2022-10-13T03:46:21;20.20;;;12.93;;
13868;SDS011;7004;48.206;16.402;2022-10-13T03:48:54;17.70;;;12.67;;
13868;SDS011;7004;48.206;16.402;2022-10-13T03:51:21;18.57;;;12.33;;
13868;SDS011;7004;48.206;16.402;2022-10-13T03:53:48;18.00;;;11.83;;
13868;SDS011;7004;48.206;16.402;2022-10-13T03:56:22;20.43;;;12.53;;
13868;SDS011;7004;48.206;16.402;2022-10-13T03:58:54;19.97;;;13.70;;
13868;SDS011;7004;48.206;16.402;2022-10-13T04:01:23;21.07;;;12.80;;
13868;SDS011;7004;48.206;16.402;2022-10-13T04:03:52;21.07;;;13.73;;
13868;SDS011;7004;48.206;16.402;2022-10-13T04:06:20;19.40;;;13.53;;
13868;SDS011;7004;48.206;16.402;2022-10-13T04:08:48;20.37;;;13.80;;
13868;SDS011;7004;48.206;16.402;2022-10-13T04:11:15;19.70;;;13.40;;
13868;SDS011;7004;48.206;16.402;2022-10-13T04:13:42;18.03;;;13.20;;
13868;SDS011;7004;48.206;16.402;2022-10-13T04:16:13;19.63;;;13.33;;
13868;SDS011;7004;48.206;16.402;2022-10-13T04:18:43;17.53;;;12.67;;
13868;SDS011;7004;48.206;16.402;2022-10-13T04:21:11;19.47;;;14.10;;
13868;SDS011;7004;48.206;16.402;2022-10-13T04:23:40;22.13;;;14.13;;
13868;SDS011;7004;48.206;16.402;2022-10-13T04:26:13;17.87;;;12.30;;
13868;SDS011;7004;48.206;16.402;2022-10-13T04:28:42;15.30;;;12.30;;
13868;SDS011;7004;48.206;16.402;2022-10-13T04:31:09;25.00;;;14.27;;
13868;SDS011;7004;48.206;16.402;2022-10-13T04:33:37;19.33;;;14.23;;
13868;SDS011;7004;48.206;16.402;2022-10-13T04:36:04;21.50;;;14.13;;
13868;SDS011;7004;48.206;16.402;2022-10-13T04:38:32;22.47;;;13.50;;
13868;SDS011;7004;48.206;16.402;2022-10-13T04:41:00;22.60;;;14.23;;
13868;SDS011;7004;48.206;16.402;2022-10-13T04:43:28;21.83;;;13.93;;
13868;SDS011;7004;48.206;16.402;2022-10-13T04:45:59;20.10;;;13.43;;
13868;SDS011;7004;48.206;16.402;2022-10-13T04:48:32;23.53;;;14.03;;
13868;SDS011;7004;48.206;16.402;2022-10-13T04:51:03;23.80;;;13.30;;
13868;SDS011;7004;48.206;16.402;2022-10-13T04:53:32;16.93;;;13.40;;
13868;SDS011;7004;48.206;16.402;2022-10-13T04:55:59;16.90;;;12.83;;
13868;SDS011;7004;48.206;16.402;2022-10-13T04:58:28;19.77;;;14.03;;
13868;SDS011;7004;48.206;16.402;2022-10-13T05:00:54;20.17;;;13.53;;
13868;SDS011;7004;48.206;16.402;2022-10-13T05:03:21;22.60;;;14.20;;
13868;SDS011;7004;48.206;16.402;2022-10-13T05:05:49;17.83;;;14.27;;
13868;SDS011;7004;48.206;16.402;2022-10-13T05:08:15;20.40;;;13.57;;
13868;SDS011;7004;48.206;16.402;2022-10-13T05:10:41;19.10;;;13.03;;
13868;SDS011;7004;48.206;16.402;2022-10-13T05:13:07;22.50;;;13.27;;
13868;SDS011;7004;48.206;16.402;2022-10-13T05:15:33;19.23;;;13.03;;
13868;SDS011;7004;48.206;16.402;2022-10-13T05:18:04;17.23;;;12.20;;
13868;SDS011;7004;48.206;16.402;2022-10-13T05:20:30;23.93;;;14.40;;
13868;SDS011;7004;48.206;16.402;2022-10-13T05:22:56;20.53;;;14.93;;
13868;SDS011;7004;48.206;16.402;2022-10-13T05:25:22;21.27;;;14.50;;
13868;SDS011;7004;48.206;16.402;2022-10-13T05:27:48;24.60;;;14.73;;
13868;SDS011;7004;48.206;16.402;2022-10-13T05:30:14;21.50;;;14.70;;
13868;SDS011;7004;48.206;16.402;2022-10-13T05:32:41;21.73;;;15.10;;
13868;SDS011;7004;48.206;16.402;2022-10-13T05:35:07;21.37;;;14.67;;
13868;SDS011;7004;48.206;16.402;2022-10-13T05:37:33;23.37;;;15.17;;
13868;SDS011;7004;48.206;16.402;2022-10-13T05:39:59;23.77;;;15.30;;
13868;SDS011;7004;48.206;16.402;2022-10-13T05:42:27;28.30;;;15.03;;
13868;SDS011;7004;48.206;16.402;2022-10-13T05:44:55;25.63;;;16.00;;
13868;SDS011;7004;48.206;16.402;2022-10-13T05:47:21;25.30;;;16.37;;
13868;SDS011;7004;48.206;16.402;2022-10-13T05:49:53;21.23;;;15.53;;
13868;SDS011;7004;48.206;16.402;2022-10-13T05:52:19;25.23;;;16.37;;
13868;SDS011;7004;48.206;16.402;2022-10-13T05:54:48;29.30;;;16.30;;
13868;SDS011;7004;48.206;16.402;2022-10-13T05:57:27;26.40;;;16.20;;
13868;SDS011;7004;48.206;16.402;2022-10-13T06:00:00;26.13;;;16.23;;
13868;SDS011;7004;48.206;16.402;2022-10-13T06:02:32;25.93;;;15.57;;
13868;SDS011;7004;48.206;16.402;2022-10-13T06:05:03;26.57;;;17.23;;
13868;SDS011;7004;48.206;16.402;2022-10-13T06:07:36;22.87;;;15.57;;
13868;SDS011;7004;48.206;16.402;2022-10-13T06:10:03;23.50;;;16.30;;
13868;SDS011;7004;48.206;16.402;2022-10-13T06:12:30;30.43;;;17.90;;
13868;SDS011;7004;48.206;16.402;2022-10-13T06:14:56;31.70;;;16.80;;
13868;SDS011;7004;48.206;16.402;2022-10-13T06:17:22;22.27;;;16.47;;
13868;SDS011;7004;48.206;16.402;2022-10-13T06:19:48;26.67;;;16.73;;
13868;SDS011;7004;48.206;16.402;2022-10-13T06:22:14;24.83;;;15.47;;
13868;SDS011;7004;48.206;16.402;2022-10-13T06:24:40;32.40;;;17.40;;
13868;SDS011;7004;48.206;16.402;2022-10-13T06:27:07;27.50;;;17.60;;
13868;SDS011;7004;48.206;16.402;2022-10-13T06:29:35;27.03;;;17.93;;
13868;SDS011;7004;48.206;16.402;2022-10-13T06:32:01;29.13;;;19.33;;
13868;SDS011;7004;48.206;16.402;2022-10-13T06:34:27;44.93;;;26.73;;
13868;SDS011;7004;48.206;16.402;2022-10-13T06:36:53;49.90;;;28.43;;
13868;SDS011;7004;48.206;16.402;2022-10-13T06:39:20;50.17;;;28.63;;
13868;SDS011;7004;48.206;16.402;2022-10-13T06:41:46;55.33;;;29.87;;
13868;SDS011;7004;48.206;16.402;2022-10-13T06:44:12;52.53;;;29.37;;
13868;SDS011;7004;48.206;16.402;2022-10-13T06:46:38;52.20;;;27.77;;
13868;SDS011;7004;48.206;16.402;2022-10-13T06:49:04;41.43;;;24.47;;
13868;SDS011;7004;48.206;16.402;2022-10-13T06:51:49;35.40;;;21.13;;
13868;SDS011;7004;48.206;16.402;2022-10-13T06:54:15;34.63;;;20.60;;
13868;SDS011;7004;48.206;16.402;2022-10-13T06:56:42;34.40;;;19.73;;
13868;SDS011;7004;48.206;16.402;2022-10-13T06:59:08;34.20;;;19.90;;
13868;SDS011;7004;48.206;16.402;2022-10-13T07:01:34;31.87;;;19.40;;
13868;SDS011;7004;48.206;16.402;2022-10-13T07:04:01;31.27;;;19.43;;
13868;SDS011;7004;48.206;16.402;2022-10-13T07:06:27;30.60;;;19.27;;
13868;SDS011;7004;48.206;16.402;2022-10-13T07:08:53;33.60;;;21.60;;
13868;SDS011;7004;48.206;16.402;2022-10-13T07:11:19;35.03;;;21.97;;
13868;SDS011;7004;48.206;16.402;2022-10-13T07:13:45;39.67;;;22.20;;
13868;SDS011;7004;48.206;16.402;2022-10-13T07:16:12;36.43;;;22.60;;
13868;SDS011;7004;48.206;16.402;2022-10-13T07:18:39;39.43;;;23.17;;
13868;SDS011;7004;48.206;16.402;2022-10-13T07:21:05;37.00;;;21.77;;
13868;SDS011;7004;48.206;16.402;2022-10-13T07:23:31;37.17;;;22.00;;
13868;SDS011;7004;48.206;16.402;2022-10-13T07:25:57;44.93;;;23.60;;
13868;SDS011;7004;48.206;16.402;2022-10-13T07:28:25;41.47;;;23.57;;
13868;SDS011;7004;48.206;16.402;2022-10-13T07:30:51;39.83;;;22.53;;
13868;SDS011;7004;48.206;16.402;2022-10-13T07:33:24;35.43;;;22.40;;
13868;SDS011;7004;48.206;16.402;2022-10-13T07:35:51;42.97;;;23.83;;
13868;SDS011;7004;48.206;16.402;2022-10-13T07:38:17;39.27;;;22.00;;
13868;SDS011;7004;48.206;16.402;2022-10-13T07:40:43;46.63;;;24.70;;
13868;SDS011;7004;48.206;16.402;2022-10-13T07:43:09;42.00;;;23.77;;
13868;SDS011;7004;48.206;16.402;2022-10-13T07:45:35;42.87;;;24.67;;
13868;SDS011;7004;48.206;16.402;2022-10-13T07:48:02;45.27;;;24.67;;
13868;SDS011;7004;48.206;16.402;2022-10-13T07:50:28;44.17;;;25.07;;
13868;SDS011;7004;48.206;16.402;2022-10-13T07:52:54;44.63;;;25.17;;
13868;SDS011;7004;48.206;16.402;2022-10-13T07:55:20;50.33;;;24.97;;
13868;SDS011;7004;48.206;16.402;2022-10-13T07:57:46;48.60;;;25.90;;
13868;SDS011;7004;48.206;16.402;2022-10-13T08:00:13;48.50;;;26.30;;
13868;SDS011;7004;48.206;16.402;2022-10-13T08:02:39;52.87;;;26.50;;
13868;SDS011;7004;48.206;16.402;2022-10-13T08:05:05;49.17;;;25.40;;
13868;SDS011;7004;48.206;16.402;2022-10-13T08:07:32;53.07;;;26.60;;
13868;SDS011;7004;48.206;16.402;2022-10-13T08:09:58;53.53;;;26.70;;
13868;SDS011;7004;48.206;16.402;2022-10-13T08:12:24;44.13;;;25.63;;
13868;SDS011;7004;48.206;16.402;2022-10-13T08:14:50;45.20;;;25.37;;
13868;SDS011;7004;48.206;16.402;2022-10-13T08:17:16;45.17;;;25.80;;
13868;SDS011;7004;48.206;16.402;2022-10-13T08:19:42;46.43;;;25.90;;
13868;SDS011;7004;48.206;16.402;2022-10-13T08:22:09;45.47;;;25.63;;
13868;SDS011;7004;48.206;16.402;2022-10-13T08:24:36;53.23;;;26.73;;
13868;SDS011;7004;48.206;16.402;2022-10-13T08:27:02;58.30;;;27.13;;
13868;SDS011;7004;48.206;16.402;2022-10-13T08:29:28;58.77;;;27.10;;
13868;SDS011;7004;48.206;16.402;2022-10-13T08:31:54;53.10;;;27.53;;
13868;SDS011;7004;48.206;16.402;2022-10-13T08:34:24;57.33;;;27.03;;
13868;SDS011;7004;48.206;16.402;2022-10-13T08:36:50;55.60;;;25.57;;
13868;SDS011;7004;48.206;16.402;2022-10-13T08:39:20;52.00;;;26.30;;
13868;SDS011;7004;48.206;16.402;2022-10-13T08:41:48;51.83;;;26.80;;
13868;SDS011;7004;48.206;16.402;2022-10-13T08:44:28;53.73;;;25.57;;
13868;SDS011;7004;48.206;16.402;2022-10-13T08:49:42;52.00;;;27.20;;
13868;SDS011;7004;48.206;16.402;2022-10-13T08:52:13;63.50;;;27.43;;
13868;SDS011;7004;48.206;16.402;2022-10-13T08:54:45;68.27;;;28.20;;
13868;SDS011;7004;48.206;16.402;2022-10-13T08:57:11;59.63;;;28.20;;
13868;SDS011;7004;48.206;16.402;2022-10-13T08:59:38;53.43;;;27.20;;
13868;SDS011;7004;48.206;16.402;2022-10-13T09:02:09;62.67;;;26.63;;
13868;SDS011;7004;48.206;16.402;2022-10-13T09:04:40;55.00;;;27.23;;
13868;SDS011;7004;48.206;16.402;2022-10-13T09:07:13;56.13;;;25.63;;
13868;SDS011;7004;48.206;16.402;2022-10-13T09:09:44;53.93;;;26.67;;
13868;SDS011;7004;48.206;16.402;2022-10-13T09:12:16;55.03;;;25.83;;
13868;SDS011;7004;48.206;16.402;2022-10-13T09:14:56;54.90;;;26.03;;
13868;SDS011;7004;48.206;16.402;2022-10-13T09:17:34;53.30;;;25.63;;
13868;SDS011;7004;48.206;16.402;2022-10-13T09:20:09;54.40;;;26.63;;
13868;SDS011;7004;48.206;16.402;2022-10-13T09:22:42;52.17;;;25.90;;
13868;SDS011;7004;48.206;16.402;2022-10-13T09:35:39;50.87;;;25.97;;
13868;SDS011;7004;48.206;16.402;2022-10-13T09:38:19;47.73;;;25.70;;
13868;SDS011;7004;48.206;16.402;2022-10-13T09:46:20;49.13;;;25.40;;
13868;SDS011;7004;48.206;16.402;2022-10-13T09:49:07;52.23;;;25.20;;
13868;SDS011;7004;48.206;16.402;2022-10-13T09:52:00;60.20;;;25.13;;
13868;SDS011;7004;48.206;16.402;2022-10-13T09:54:47;54.17;;;25.83;;
13868;SDS011;7004;48.206;16.402;2022-10-13T09:57:21;57.27;;;26.80;;
13868;SDS011;7004;48.206;16.402;2022-10-13T10:03:09;50.60;;;26.50;;
13868;SDS011;7004;48.206;16.402;2022-10-13T10:05:53;53.83;;;26.97;;
13868;SDS011;7004;48.206;16.402;2022-10-13T10:13:59;52.53;;;27.77;;
13868;SDS011;7004;48.206;16.402;2022-10-13T10:16:39;59.47;;;27.20;;
13868;SDS011;7004;48.206;16.402;2022-10-13T10:25:58;50.87;;;26.07;;
13868;SDS011;7004;48.206;16.402;2022-10-13T10:34:36;57.90;;;29.37;;
13868;SDS011;7004;48.206;16.402;2022-10-13T10:44:12;58.07;;;28.67;;
13868;SDS011;7004;48.206;16.402;2022-10-13T10:46:59;56.53;;;29.13;;
13868;SDS011;7004;48.206;16.402;2022-10-13T10:49:31;57.80;;;31.03;;
13868;SDS011;7004;48.206;16.402;2022-10-13T10:52:01;53.40;;;29.33;;
13868;SDS011;7004;48.206;16.402;2022-10-13T11:00:20;53.40;;;26.87;;
13868;SDS011;7004;48.206;16.402;2022-10-13T11:08:43;50.80;;;28.63;;
13868;SDS011;7004;48.206;16.402;2022-10-13T11:13:50;51.13;;;29.60;;
13868;SDS011;7004;48.206;16.402;2022-10-13T11:16:31;52.40;;;29.70;;
13868;SDS011;7004;48.206;16.402;2022-10-13T11:40:27;55.07;;;30.63;;
13868;SDS011;7004;48.206;16.402;2022-10-13T11:51:59;56.80;;;29.57;;
13868;SDS011;7004;48.206;16.402;2022-10-13T11:54:48;59.53;;;29.83;;
13868;SDS011;7004;48.206;16.402;2022-10-13T11:57:24;49.40;;;28.53;;
13868;SDS011;7004;48.206;16.402;2022-10-13T11:59:53;50.23;;;29.07;;
13868;SDS011;7004;48.206;16.402;2022-10-13T12:02:22;50.23;;;28.90;;
13868;SDS011;7004;48.206;16.402;2022-10-13T12:05:06;57.70;;;31.30;;
13868;SDS011;7004;48.206;16.402;2022-10-13T12:07:49;50.00;;;28.23;;
13868;SDS011;7004;48.206;16.402;2022-10-13T12:10:34;45.13;;;27.80;;
13868;SDS011;7004;48.206;16.402;2022-10-13T12:13:02;48.47;;;29.70;;
13868;SDS011;7004;48.206;16.402;2022-10-13T12:18:18;60.63;;;31.10;;
13868;SDS011;7004;48.206;16.402;2022-10-13T12:20:56;55.93;;;30.97;;
13868;SDS011;7004;48.206;16.402;2022-10-13T12:23:25;55.37;;;30.53;;
13868;SDS011;7004;48.206;16.402;2022-10-13T12:25:54;50.93;;;29.67;;
13868;SDS011;7004;48.206;16.402;2022-10-13T12:28:22;54.20;;;30.33;;
13868;SDS011;7004;48.206;16.402;2022-10-13T12:30:58;49.63;;;30.13;;
13868;SDS011;7004;48.206;16.402;2022-10-13T12:33:26;49.60;;;29.50;;
13868;SDS011;7004;48.206;16.402;2022-10-13T12:36:12;55.23;;;31.63;;
13868;SDS011;7004;48.206;16.402;2022-10-13T12:38:45;52.33;;;30.73;;
13868;SDS011;7004;48.206;16.402;2022-10-13T12:41:17;54.17;;;32.13;;
13868;SDS011;7004;48.206;16.402;2022-10-13T12:43:52;56.23;;;31.50;;
13868;SDS011;7004;48.206;16.402;2022-10-13T12:46:38;57.37;;;30.33;;
13868;SDS011;7004;48.206;16.402;2022-10-13T12:49:14;62.83;;;30.77;;
13868;SDS011;7004;48.206;16.402;2022-10-13T12:52:12;59.77;;;30.57;;
13868;SDS011;7004;48.206;16.402;2022-10-13T12:54:48;51.97;;;29.93;;
13868;SDS011;7004;48.206;16.402;2022-10-13T13:00:03;48.87;;;29.93;;
13868;SDS011;7004;48.206;16.402;2022-10-13T13:02:31;58.33;;;30.67;;
13868;SDS011;7004;48.206;16.402;2022-10-13T13:04:57;55.90;;;30.80;;
13868;SDS011;7004;48.206;16.402;2022-10-13T13:10:13;49.27;;;29.80;;
13868;SDS011;7004;48.206;16.402;2022-10-13T13:12:44;60.10;;;31.40;;
13868;SDS011;7004;48.206;16.402;2022-10-13T13:15:30;60.60;;;31.23;;
13868;SDS011;7004;48.206;16.402;2022-10-13T13:20:51;58.77;;;31.43;;
13868;SDS011;7004;48.206;16.402;2022-10-13T13:23:18;58.83;;;30.80;;
13868;SDS011;7004;48.206;16.402;2022-10-13T13:25:46;56.37;;;30.10;;
13868;SDS011;7004;48.206;16.402;2022-10-13T13:28:27;53.63;;;28.90;;
13868;SDS011;7004;48.206;16.402;2022-10-13T13:30:55;54.43;;;30.20;;
13868;SDS011;7004;48.206;16.402;2022-10-13T13:33:22;63.90;;;31.23;;
13868;SDS011;7004;48.206;16.402;2022-10-13T13:35:49;50.80;;;30.57;;
13868;SDS011;7004;48.206;16.402;2022-10-13T13:38:16;56.97;;;29.67;;
13868;SDS011;7004;48.206;16.402;2022-10-13T13:40:43;62.93;;;31.37;;
13868;SDS011;7004;48.206;16.402;2022-10-13T13:43:09;60.90;;;30.00;;
13868;SDS011;7004;48.206;16.402;2022-10-13T13:45:35;53.70;;;30.93;;
13868;SDS011;7004;48.206;16.402;2022-10-13T13:48:01;51.53;;;29.27;;
13868;SDS011;7004;48.206;16.402;2022-10-13T13:50:31;47.13;;;29.63;;
13868;SDS011;7004;48.206;16.402;2022-10-13T13:53:00;46.50;;;29.57;;
13868;SDS011;7004;48.206;16.402;2022-10-13T13:55:27;54.93;;;32.00;;
13868;SDS011;7004;48.206;16.402;2022-10-13T13:57:54;49.30;;;30.57;;
13868;SDS011;7004;48.206;16.402;2022-10-13T14:00:21;50.00;;;30.97;;
13868;SDS011;7004;48.206;16.402;2022-10-13T14:02:48;56.60;;;32.07;;
13868;SDS011;7004;48.206;16.402;2022-10-13T14:05:14;61.47;;;31.70;;
13868;SDS011;7004;48.206;16.402;2022-10-13T14:07:40;57.07;;;31.10;;
13868;SDS011;7004;48.206;16.402;2022-10-13T14:10:08;57.37;;;30.97;;
13868;SDS011;7004;48.206;16.402;2022-10-13T14:12:35;58.50;;;31.63;;
13868;SDS011;7004;48.206;16.402;2022-10-13T14:15:01;54.47;;;32.60;;
13868;SDS011;7004;48.206;16.402;2022-10-13T14:17:28;57.83;;;31.67;;
13868;SDS011;7004;48.206;16.402;2022-10-13T14:19:54;60.40;;;33.20;;
13868;SDS011;7004;48.206;16.402;2022-10-13T14:22:20;57.07;;;31.93;;
13868;SDS011;7004;48.206;16.402;2022-10-13T14:24:47;48.53;;;30.07;;
13868;SDS011;7004;48.206;16.402;2022-10-13T14:27:13;60.00;;;31.23;;
13868;SDS011;7004;48.206;16.402;2022-10-13T14:29:39;59.17;;;32.37;;
13868;SDS011;7004;48.206;16.402;2022-10-13T14:32:05;56.23;;;31.83;;
13868;SDS011;7004;48.206;16.402;2022-10-13T14:34:31;55.97;;;33.00;;
13868;SDS011;7004;48.206;16.402;2022-10-13T14:36:58;61.67;;;33.10;;
13868;SDS011;7004;48.206;16.402;2022-10-13T14:39:24;53.30;;;32.27;;
13868;SDS011;7004;48.206;16.402;2022-10-13T14:41:51;52.63;;;31.50;;
13868;SDS011;7004;48.206;16.402;2022-10-13T14:44:17;55.73;;;32.63;;
13868;SDS011;7004;48.206;16.402;2022-10-13T14:46:43;56.13;;;31.37;;
13868;SDS011;7004;48.206;16.402;2022-10-13T14:49:09;50.10;;;31.50;;
13868;SDS011;7004;48.206;16.402;2022-10-13T14:51:36;49.33;;;30.77;;
13868;SDS011;7004;48.206;16.402;2022-10-13T14:54:02;49.67;;;30.57;;
13868;SDS011;7004;48.206;16.402;2022-10-13T14:56:29;52.10;;;30.90;;
13868;SDS011;7004;48.206;16.402;2022-10-13T14:58:56;52.10;;;29.83;;
13868;SDS011;7004;48.206;16.402;2022-10-13T15:01:27;55.73;;;31.43;;
13868;SDS011;7004;48.206;16.402;2022-10-13T15:03:53;58.30;;;30.47;;
13868;SDS011;7004;48.206;16.402;2022-10-13T15:06:21;50.13;;;30.10;;
13868;SDS011;7004;48.206;16.402;2022-10-13T15:08:49;52.87;;;29.23;;
13868;SDS011;7004;48.206;16.402;2022-10-13T15:11:17;47.63;;;29.03;;
13868;SDS011;7004;48.206;16.402;2022-10-13T15:13:44;50.43;;;30.27;;
13868;SDS011;7004;48.206;16.402;2022-10-13T15:16:14;54.50;;;27.70;;
13868;SDS011;7004;48.206;16.402;2022-10-13T15:18:46;52.50;;;28.53;;
13868;SDS011;7004;48.206;16.402;2022-10-13T15:21:12;48.07;;;27.63;;
13868;SDS011;7004;48.206;16.402;2022-10-13T15:23:41;44.63;;;26.83;;
13868;SDS011;7004;48.206;16.402;2022-10-13T15:26:07;45.43;;;28.07;;
13868;SDS011;7004;48.206;16.402;2022-10-13T15:28:39;47.20;;;27.10;;
13868;SDS011;7004;48.206;16.402;2022-10-13T15:31:12;46.57;;;26.47;;
13868;SDS011;7004;48.206;16.402;2022-10-13T15:33:44;44.07;;;25.03;;
13868;SDS011;7004;48.206;16.402;2022-10-13T15:36:12;42.33;;;25.53;;
13868;SDS011;7004;48.206;16.402;2022-10-13T15:38:38;51.20;;;25.97;;
13868;SDS011;7004;48.206;16.402;2022-10-13T15:41:05;46.30;;;24.97;;
13868;SDS011;7004;48.206;16.402;2022-10-13T15:43:32;39.47;;;23.47;;
13868;SDS011;7004;48.206;16.402;2022-10-13T15:45:59;34.00;;;23.03;;
13868;SDS011;7004;48.206;16.402;2022-10-13T15:48:28;42.33;;;22.70;;
13868;SDS011;7004;48.206;16.402;2022-10-13T15:50:54;42.87;;;23.20;;
13868;SDS011;7004;48.206;16.402;2022-10-13T15:53:20;41.03;;;22.67;;
13868;SDS011;7004;48.206;16.402;2022-10-13T15:55:48;33.93;;;21.27;;
13868;SDS011;7004;48.206;16.402;2022-10-13T15:58:14;31.17;;;21.47;;
13868;SDS011;7004;48.206;16.402;2022-10-13T16:00:41;41.40;;;22.07;;
13868;SDS011;7004;48.206;16.402;2022-10-13T16:03:15;35.73;;;21.10;;
13868;SDS011;7004;48.206;16.402;2022-10-13T16:05:43;34.50;;;19.67;;
13868;SDS011;7004;48.206;16.402;2022-10-13T16:08:10;33.00;;;21.20;;
13868;SDS011;7004;48.206;16.402;2022-10-13T16:10:38;35.43;;;21.47;;
13868;SDS011;7004;48.206;16.402;2022-10-13T16:13:07;35.53;;;21.10;;
13868;SDS011;7004;48.206;16.402;2022-10-13T16:15:37;34.50;;;20.80;;
13868;SDS011;7004;48.206;16.402;2022-10-13T16:18:03;35.03;;;21.37;;
13868;SDS011;7004;48.206;16.402;2022-10-13T16:20:30;36.63;;;21.70;;
13868;SDS011;7004;48.206;16.402;2022-10-13T16:22:59;41.07;;;22.43;;
13868;SDS011;7004;48.206;16.402;2022-10-13T16:25:26;37.47;;;21.87;;
13868;SDS011;7004;48.206;16.402;2022-10-13T16:27:53;32.90;;;21.27;;
13868;SDS011;7004;48.206;16.402;2022-10-13T16:30:19;35.93;;;22.97;;
13868;SDS011;7004;48.206;16.402;2022-10-13T16:32:45;41.80;;;22.97;;
13868;SDS011;7004;48.206;16.402;2022-10-13T16:35:11;38.20;;;23.47;;
13868;SDS011;7004;48.206;16.402;2022-10-13T16:37:37;39.63;;;23.57;;
13868;SDS011;7004;48.206;16.402;2022-10-13T16:40:04;35.03;;;23.47;;